sensor_id;sensor_type;location;lat;lon;timestamp;pressure;altitude;pressure_sealevel;temperature;humidity
74372;BME280;62885;51.374;6.170;2023-03-08T00:00:35;99817.63;;;1.67;99.37
74372;BME280;62885;51.374;6.170;2023-03-08T00:03:00;99810.38;;;1.71;99.62
74372;BME280;62885;51.374;6.170;2023-03-08T00:05:26;99806.81;;;1.72;99.79
74372;BME280;62885;51.374;6.170;2023-03-08T00:07:52;99810.63;;;1.66;98.90
74372;BME280;62885;51.374;6.170;2023-03-08T00:10:17;99808.59;;;1.71;99.29
74372;BME280;62885;51.374;6.170;2023-03-08T00:12:43;99811.47;;;1.67;99.06
74372;BME280;62885;51.374;6.170;2023-03-08T00:15:09;99805.19;;;1.69;99.31
74372;BME280;62885;51.374;6.170;2023-03-08T00:17:38;99809.09;;;1.62;99.05
74372;BME280;62885;51.374;6.170;2023-03-08T00:20:07;99796.44;;;1.69;99.35
74372;BME280;62885;51.374;6.170;2023-03-08T00:22:41;99805.94;;;1.71;98.70
74372;BME280;62885;51.374;6.170;2023-03-08T00:25:08;99817.63;;;1.67;98.93
74372;BME280;62885;51.374;6.170;2023-03-08T00:27:34;99821.78;;;1.71;98.45
74372;BME280;62885;51.374;6.170;2023-03-08T00:30:03;99819.16;;;1.71;98.72
74372;BME280;62885;51.374;6.170;2023-03-08T00:32:30;99813.28;;;1.66;98.91
74372;BME280;62885;51.374;6.170;2023-03-08T00:34:56;99809.78;;;1.65;98.42
74372;BME280;62885;51.374;6.170;2023-03-08T00:37:21;99814.19;;;1.65;98.84
74372;BME280;62885;51.374;6.170;2023-03-08T00:39:50;99804.56;;;1.64;99.55
74372;BME280;62885;51.374;6.170;2023-03-08T00:42:17;99807.59;;;1.74;99.04
74372;BME280;62885;51.374;6.170;2023-03-08T00:44:42;99809.44;;;1.72;98.94
74372;BME280;62885;51.374;6.170;2023-03-08T00:47:07;99803.66;;;1.65;98.25
74372;BME280;62885;51.374;6.170;2023-03-08T00:49:33;99807.22;;;1.64;98.51
74372;BME280;62885;51.374;6.170;2023-03-08T00:51:58;99804.34;;;1.69;98.41
74372;BME280;62885;51.374;6.170;2023-03-08T00:54:23;99802.47;;;1.71;98.77
74372;BME280;62885;51.374;6.170;2023-03-08T00:56:49;99802.38;;;1.72;98.47
74372;BME280;62885;51.374;6.170;2023-03-08T00:59:14;99799.91;;;1.69;98.74
74372;BME280;62885;51.374;6.170;2023-03-08T01:01:39;99799.41;;;1.78;98.66
74372;BME280;62885;51.374;6.170;2023-03-08T01:04:05;99796.53;;;1.83;98.16
74372;BME280;62885;51.374;6.170;2023-03-08T01:06:30;99789.47;;;1.83;98.41
74372;BME280;62885;51.374;6.170;2023-03-08T01:08:55;99793.88;;;1.83;98.53
74372;BME280;62885;51.374;6.170;2023-03-08T01:11:23;99787.75;;;1.82;98.64
74372;BME280;62885;51.374;6.170;2023-03-08T01:13:50;99784.44;;;1.79;98.27
74372;BME280;62885;51.374;6.170;2023-03-08T01:16:23;99780.16;;;1.76;97.94
74372;BME280;62885;51.374;6.170;2023-03-08T01:18:48;99785.44;;;1.76;98.28
74372;BME280;62885;51.374;6.170;2023-03-08T01:21:14;99777.44;;;1.78;98.47
74372;BME280;62885;51.374;6.170;2023-03-08T01:23:39;99777.97;;;1.84;98.17
74372;BME280;62885;51.374;6.170;2023-03-08T01:26:11;99775.34;;;1.84;98.13
74372;BME280;62885;51.374;6.170;2023-03-08T01:28:38;99763.84;;;1.85;98.13
74372;BME280;62885;51.374;6.170;2023-03-08T01:31:15;99755.94;;;1.85;98.79
74372;BME280;62885;51.374;6.170;2023-03-08T01:33:42;99757.19;;;1.78;98.95
74372;BME280;62885;51.374;6.170;2023-03-08T01:36:11;99757.78;;;1.83;98.86
74372;BME280;62885;51.374;6.170;2023-03-08T01:38:36;99753.09;;;1.88;99.38
74372;BME280;62885;51.374;6.170;2023-03-08T01:41:03;99745.78;;;1.93;99.20
74372;BME280;62885;51.374;6.170;2023-03-08T01:46:26;99741.03;;;1.84;98.87
74372;BME280;62885;51.374;6.170;2023-03-08T01:48:55;99738.47;;;1.83;99.31
74372;BME280;62885;51.374;6.170;2023-03-08T01:51:37;99728.94;;;1.80;99.61
74372;BME280;62885;51.374;6.170;2023-03-08T01:54:20;99718.63;;;1.91;99.37
74372;BME280;62885;51.374;6.170;2023-03-08T01:56:48;99710.88;;;1.88;99.29
74372;BME280;62885;51.374;6.170;2023-03-08T01:59:15;99715.16;;;1.91;98.67
74372;BME280;62885;51.374;6.170;2023-03-08T02:01:40;99709.94;;;1.89;98.99
74372;BME280;62885;51.374;6.170;2023-03-08T02:04:07;99702.13;;;1.88;99.07
74372;BME280;62885;51.374;6.170;2023-03-08T02:06:33;99701.38;;;1.86;98.58
74372;BME280;62885;51.374;6.170;2023-03-08T02:08:59;99695.59;;;1.79;99.05
74372;BME280;62885;51.374;6.170;2023-03-08T02:11:29;99691.16;;;1.80;99.21
74372;BME280;62885;51.374;6.170;2023-03-08T02:13:54;99697.94;;;1.84;99.24
74372;BME280;62885;51.374;6.170;2023-03-08T02:16:21;99690.69;;;1.87;98.75
74372;BME280;62885;51.374;6.170;2023-03-08T02:18:58;99701.03;;;1.92;98.51
74372;BME280;62885;51.374;6.170;2023-03-08T02:21:24;99699.13;;;1.94;98.86
74372;BME280;62885;51.374;6.170;2023-03-08T02:23:52;99701.94;;;1.91;99.33
74372;BME280;62885;51.374;6.170;2023-03-08T02:26:18;99696.69;;;1.91;98.44
74372;BME280;62885;51.374;6.170;2023-03-08T02:28:44;99693.44;;;1.86;98.90
74372;BME280;62885;51.374;6.170;2023-03-08T02:31:10;99684.69;;;1.85;98.64
74372;BME280;62885;51.374;6.170;2023-03-08T02:33:36;99680.91;;;1.89;98.84
74372;BME280;62885;51.374;6.170;2023-03-08T02:36:02;99675.56;;;1.91;99.08
74372;BME280;62885;51.374;6.170;2023-03-08T02:38:30;99673.78;;;1.91;98.42
74372;BME280;62885;51.374;6.170;2023-03-08T02:40:56;99679.41;;;1.85;98.55
74372;BME280;62885;51.374;6.170;2023-03-08T02:43:21;99674.97;;;1.86;98.87
74372;BME280;62885;51.374;6.170;2023-03-08T02:45:47;99678.56;;;1.85;98.75
74372;BME280;62885;51.374;6.170;2023-03-08T02:48:13;99672.50;;;1.83;98.46
74372;BME280;62885;51.374;6.170;2023-03-08T02:50:41;99664.66;;;1.81;98.09
74372;BME280;62885;51.374;6.170;2023-03-08T02:53:07;99671.56;;;1.84;98.49
74372;BME280;62885;51.374;6.170;2023-03-08T02:55:33;99669.00;;;1.82;98.55
74372;BME280;62885;51.374;6.170;2023-03-08T02:58:03;99663.56;;;1.85;98.37
74372;BME280;62885;51.374;6.170;2023-03-08T03:00:29;99657.81;;;1.93;98.62
74372;BME280;62885;51.374;6.170;2023-03-08T03:02:54;99655.31;;;1.91;97.93
74372;BME280;62885;51.374;6.170;2023-03-08T03:05:19;99645.09;;;1.85;97.93
74372;BME280;62885;51.374;6.170;2023-03-08T03:07:45;99646.47;;;1.77;97.81
74372;BME280;62885;51.374;6.170;2023-03-08T03:10:11;99644.72;;;1.61;98.85
74372;BME280;62885;51.374;6.170;2023-03-08T03:12:37;99642.56;;;1.68;98.57
74372;BME280;62885;51.374;6.170;2023-03-08T03:15:04;99639.81;;;1.70;98.44
74372;BME280;62885;51.374;6.170;2023-03-08T03:17:30;99641.59;;;1.69;98.52
74372;BME280;62885;51.374;6.170;2023-03-08T03:19:56;99636.34;;;1.69;98.58
74372;BME280;62885;51.374;6.170;2023-03-08T03:22:22;99630.47;;;1.64;99.14
74372;BME280;62885;51.374;6.170;2023-03-08T03:24:49;99619.34;;;1.59;99.21
74372;BME280;62885;51.374;6.170;2023-03-08T03:27:15;99620.19;;;1.59;99.24
74372;BME280;62885;51.374;6.170;2023-03-08T03:29:41;99617.22;;;1.65;99.14
74372;BME280;62885;51.374;6.170;2023-03-08T03:32:06;99612.59;;;1.69;98.67
74372;BME280;62885;51.374;6.170;2023-03-08T03:34:32;99608.63;;;1.62;98.96
74372;BME280;62885;51.374;6.170;2023-03-08T03:36:57;99614.06;;;1.59;98.35
74372;BME280;62885;51.374;6.170;2023-03-08T03:39:23;99616.44;;;1.63;98.96
74372;BME280;62885;51.374;6.170;2023-03-08T03:41:48;99606.00;;;1.62;99.13
74372;BME280;62885;51.374;6.170;2023-03-08T03:44:13;99614.06;;;1.59;99.22
74372;BME280;62885;51.374;6.170;2023-03-08T03:46:38;99596.63;;;1.56;98.90
74372;BME280;62885;51.374;6.170;2023-03-08T03:49:04;99588.72;;;1.56;99.14
74372;BME280;62885;51.374;6.170;2023-03-08T03:51:29;99587.75;;;1.57;98.92
74372;BME280;62885;51.374;6.170;2023-03-08T03:53:56;99585.03;;;1.59;99.34
74372;BME280;62885;51.374;6.170;2023-03-08T03:56:24;99584.63;;;1.67;99.25
74372;BME280;62885;51.374;6.170;2023-03-08T03:58:52;99583.84;;;1.64;98.45
74372;BME280;62885;51.374;6.170;2023-03-08T04:01:24;99583.19;;;1.61;98.81
74372;BME280;62885;51.374;6.170;2023-03-08T04:03:50;99579.19;;;1.54;99.24
74372;BME280;62885;51.374;6.170;2023-03-08T04:06:21;99582.50;;;1.57;98.85
74372;BME280;62885;51.374;6.170;2023-03-08T04:08:48;99576.28;;;1.58;98.58
74372;BME280;62885;51.374;6.170;2023-03-08T04:11:17;99574.09;;;1.51;98.83
74372;BME280;62885;51.374;6.170;2023-03-08T04:13:44;99570.16;;;1.58;98.74
74372;BME280;62885;51.374;6.170;2023-03-08T04:16:13;99558.16;;;1.52;98.18
74372;BME280;62885;51.374;6.170;2023-03-08T04:18:39;99555.38;;;1.55;98.68
74372;BME280;62885;51.374;6.170;2023-03-08T04:21:05;99547.38;;;1.57;98.26
74372;BME280;62885;51.374;6.170;2023-03-08T04:23:31;99559.03;;;1.53;98.82
74372;BME280;62885;51.374;6.170;2023-03-08T04:25:56;99553.75;;;1.53;98.17
74372;BME280;62885;51.374;6.170;2023-03-08T04:28:22;99541.25;;;1.56;99.45
74372;BME280;62885;51.374;6.170;2023-03-08T04:30:47;99538.84;;;1.52;99.04
74372;BME280;62885;51.374;6.170;2023-03-08T04:33:12;99529.00;;;1.55;99.61
74372;BME280;62885;51.374;6.170;2023-03-08T04:35:38;99532.38;;;1.57;98.43
74372;BME280;62885;51.374;6.170;2023-03-08T04:38:03;99533.16;;;1.59;99.02
74372;BME280;62885;51.374;6.170;2023-03-08T04:40:29;99518.72;;;1.51;99.25
74372;BME280;62885;51.374;6.170;2023-03-08T04:42:55;99512.59;;;1.50;98.86
74372;BME280;62885;51.374;6.170;2023-03-08T04:45:20;99512.50;;;1.52;99.11
74372;BME280;62885;51.374;6.170;2023-03-08T04:47:46;99513.09;;;1.57;99.26
74372;BME280;62885;51.374;6.170;2023-03-08T04:50:11;99502.72;;;1.54;99.57
74372;BME280;62885;51.374;6.170;2023-03-08T04:52:37;99507.97;;;1.54;98.75
74372;BME280;62885;51.374;6.170;2023-03-08T04:55:03;99498.19;;;1.56;99.70
74372;BME280;62885;51.374;6.170;2023-03-08T04:57:28;99499.06;;;1.56;99.25
74372;BME280;62885;51.374;6.170;2023-03-08T04:59:54;99494.13;;;1.50;99.06
74372;BME280;62885;51.374;6.170;2023-03-08T05:02:21;99493.81;;;1.41;99.13
74372;BME280;62885;51.374;6.170;2023-03-08T05:04:47;99489.22;;;1.44;99.46
74372;BME280;62885;51.374;6.170;2023-03-08T05:07:12;99479.69;;;1.42;99.35
74372;BME280;62885;51.374;6.170;2023-03-08T05:09:38;99483.75;;;1.47;99.43
74372;BME280;62885;51.374;6.170;2023-03-08T05:12:03;99480.75;;;1.53;98.66
74372;BME280;62885;51.374;6.170;2023-03-08T05:14:29;99479.34;;;1.48;99.44
74372;BME280;62885;51.374;6.170;2023-03-08T05:16:57;99477.91;;;1.42;99.27
74372;BME280;62885;51.374;6.170;2023-03-08T05:19:23;99470.66;;;1.46;99.09
74372;BME280;62885;51.374;6.170;2023-03-08T05:21:49;99463.69;;;1.45;99.03
74372;BME280;62885;51.374;6.170;2023-03-08T05:24:14;99461.16;;;1.43;98.71
74372;BME280;62885;51.374;6.170;2023-03-08T05:26:39;99452.75;;;1.37;99.84
74372;BME280;62885;51.374;6.170;2023-03-08T05:29:05;99451.53;;;1.42;99.42
74372;BME280;62885;51.374;6.170;2023-03-08T05:31:32;99439.84;;;1.46;98.82
74372;BME280;62885;51.374;6.170;2023-03-08T05:33:57;99438.53;;;1.39;99.19
74372;BME280;62885;51.374;6.170;2023-03-08T05:36:23;99432.00;;;1.31;99.11
74372;BME280;62885;51.374;6.170;2023-03-08T05:38:57;99430.88;;;1.35;99.57
74372;BME280;62885;51.374;6.170;2023-03-08T05:41:22;99423.16;;;1.32;98.70
74372;BME280;62885;51.374;6.170;2023-03-08T05:43:47;99411.38;;;1.23;99.34
74372;BME280;62885;51.374;6.170;2023-03-08T05:46:15;99408.66;;;1.24;99.56
74372;BME280;62885;51.374;6.170;2023-03-08T05:48:41;99408.94;;;1.20;100.00
74372;BME280;62885;51.374;6.170;2023-03-08T05:51:08;99403.47;;;1.23;99.70
74372;BME280;62885;51.374;6.170;2023-03-08T05:53:34;99398.66;;;1.15;99.81
74372;BME280;62885;51.374;6.170;2023-03-08T05:58:34;99380.38;;;1.12;99.26
74372;BME280;62885;51.374;6.170;2023-03-08T06:00:59;99382.63;;;1.04;99.72
74372;BME280;62885;51.374;6.170;2023-03-08T06:03:24;99371.59;;;0.98;99.42
74372;BME280;62885;51.374;6.170;2023-03-08T06:05:50;99371.59;;;0.98;99.52
74372;BME280;62885;51.374;6.170;2023-03-08T06:08:15;99369.47;;;0.89;100.00
74372;BME280;62885;51.374;6.170;2023-03-08T06:10:40;99355.16;;;0.78;100.00
74372;BME280;62885;51.374;6.170;2023-03-08T06:13:08;99347.25;;;0.78;100.00
74372;BME280;62885;51.374;6.170;2023-03-08T06:15:35;99334.00;;;0.80;100.00
74372;BME280;62885;51.374;6.170;2023-03-08T06:18:01;99335.69;;;0.81;100.00
74372;BME280;62885;51.374;6.170;2023-03-08T06:20:26;99333.41;;;0.75;100.00
74372;BME280;62885;51.374;6.170;2023-03-08T06:22:52;99330.94;;;0.72;100.00
74372;BME280;62885;51.374;6.170;2023-03-08T06:25:17;99316.50;;;0.79;100.00
74372;BME280;62885;51.374;6.170;2023-03-08T06:27:42;99329.25;;;0.71;100.00
74372;BME280;62885;51.374;6.170;2023-03-08T06:30:08;99321.19;;;0.74;100.00
74372;BME280;62885;51.374;6.170;2023-03-08T06:32:34;99320.50;;;0.70;100.00
74372;BME280;62885;51.374;6.170;2023-03-08T06:35:01;99314.00;;;0.76;100.00
74372;BME280;62885;51.374;6.170;2023-03-08T06:37:31;99327.66;;;0.68;100.00
74372;BME280;62885;51.374;6.170;2023-03-08T06:39:57;99327.56;;;0.70;100.00
74372;BME280;62885;51.374;6.170;2023-03-08T06:42:22;99319.84;;;0.67;100.00
74372;BME280;62885;51.374;6.170;2023-03-08T06:44:48;99317.28;;;0.65;100.00
74372;BME280;62885;51.374;6.170;2023-03-08T06:47:13;99321.81;;;0.63;100.00
74372;BME280;62885;51.374;6.170;2023-03-08T06:49:38;99311.63;;;0.57;100.00
74372;BME280;62885;51.374;6.170;2023-03-08T06:52:04;99316.34;;;0.66;100.00
74372;BME280;62885;51.374;6.170;2023-03-08T06:54:29;99313.91;;;0.63;100.00
74372;BME280;62885;51.374;6.170;2023-03-08T06:56:54;99315.09;;;0.58;100.00
74372;BME280;62885;51.374;6.170;2023-03-08T06:59:20;99303.81;;;0.56;100.00
74372;BME280;62885;51.374;6.170;2023-03-08T07:01:45;99306.78;;;0.50;100.00
74372;BME280;62885;51.374;6.170;2023-03-08T07:04:11;99303.97;;;0.53;100.00
74372;BME280;62885;51.374;6.170;2023-03-08T07:06:36;99306.44;;;0.56;100.00
74372;BME280;62885;51.374;6.170;2023-03-08T07:09:01;99308.41;;;0.52;100.00
74372;BME280;62885;51.374;6.170;2023-03-08T07:11:27;99306.53;;;0.54;100.00
74372;BME280;62885;51.374;6.170;2023-03-08T07:13:53;99304.16;;;0.50;100.00
74372;BME280;62885;51.374;6.170;2023-03-08T07:16:19;99313.25;;;0.44;100.00
74372;BME280;62885;51.374;6.170;2023-03-08T07:18:44;99309.63;;;0.47;100.00
74372;BME280;62885;51.374;6.170;2023-03-08T07:21:10;99310.19;;;0.36;100.00
74372;BME280;62885;51.374;6.170;2023-03-08T07:23:38;99304.28;;;0.32;100.00
74372;BME280;62885;51.374;6.170;2023-03-08T07:26:05;99302.50;;;0.33;100.00
74372;BME280;62885;51.374;6.170;2023-03-08T07:28:31;99296.81;;;0.40;100.00
74372;BME280;62885;51.374;6.170;2023-03-08T07:30:56;99291.69;;;0.37;100.00
74372;BME280;62885;51.374;6.170;2023-03-08T07:33:22;99283.72;;;0.39;100.00
74372;BME280;62885;51.374;6.170;2023-03-08T07:35:48;99279.47;;;0.36;100.00
74372;BME280;62885;51.374;6.170;2023-03-08T07:38:14;99280.16;;;0.40;100.00
74372;BME280;62885;51.374;6.170;2023-03-08T07:40:40;99272.00;;;0.45;100.00
74372;BME280;62885;51.374;6.170;2023-03-08T07:43:05;99274.97;;;0.38;100.00
74372;BME280;62885;51.374;6.170;2023-03-08T07:45:31;99270.28;;;0.44;100.00
74372;BME280;62885;51.374;6.170;2023-03-08T07:47:56;99274.47;;;0.32;100.00
74372;BME280;62885;51.374;6.170;2023-03-08T07:50:22;99272.78;;;0.31;100.00
74372;BME280;62885;51.374;6.170;2023-03-08T07:52:48;99262.31;;;0.29;100.00
74372;BME280;62885;51.374;6.170;2023-03-08T07:55:13;99270.72;;;0.36;100.00
74372;BME280;62885;51.374;6.170;2023-03-08T07:57:38;99261.03;;;0.36;100.00
74372;BME280;62885;51.374;6.170;2023-03-08T08:00:05;99253.97;;;0.23;100.00
74372;BME280;62885;51.374;6.170;2023-03-08T08:02:34;99244.16;;;0.25;100.00
74372;BME280;62885;51.374;6.170;2023-03-08T08:05:00;99238.34;;;0.20;100.00
74372;BME280;62885;51.374;6.170;2023-03-08T08:07:25;99235.34;;;0.26;100.00
74372;BME280;62885;51.374;6.170;2023-03-08T08:09:51;99228.66;;;0.20;100.00
74372;BME280;62885;51.374;6.170;2023-03-08T08:12:17;99228.16;;;0.14;100.00
74372;BME280;62885;51.374;6.170;2023-03-08T08:14:42;99232.22;;;0.19;100.00
74372;BME280;62885;51.374;6.170;2023-03-08T08:17:07;99227.50;;;0.10;100.00
74372;BME280;62885;51.374;6.170;2023-03-08T08:19:33;99205.41;;;0.13;100.00
74372;BME280;62885;51.374;6.170;2023-03-08T08:21:58;99202.03;;;0.11;100.00
74372;BME280;62885;51.374;6.170;2023-03-08T08:24:24;99208.88;;;0.13;100.00
74372;BME280;62885;51.374;6.170;2023-03-08T08:26:50;99199.41;;;0.11;100.00
74372;BME280;62885;51.374;6.170;2023-03-08T08:29:15;99209.16;;;0.09;100.00
74372;BME280;62885;51.374;6.170;2023-03-08T08:31:40;99195.84;;;0.12;100.00
74372;BME280;62885;51.374;6.170;2023-03-08T08:34:06;99196.19;;;0.06;100.00
74372;BME280;62885;51.374;6.170;2023-03-08T08:36:32;99197.22;;;0.03;100.00
74372;BME280;62885;51.374;6.170;2023-03-08T08:38:57;99186.88;;;0.00;100.00
74372;BME280;62885;51.374;6.170;2023-03-08T08:41:23;99191.63;;;-0.07;100.00
74372;BME280;62885;51.374;6.170;2023-03-08T08:43:48;99162.78;;;-0.08;100.00
74372;BME280;62885;51.374;6.170;2023-03-08T08:46:15;99167.13;;;-0.07;100.00
74372;BME280;62885;51.374;6.170;2023-03-08T08:48:41;99163.28;;;-0.02;100.00
74372;BME280;62885;51.374;6.170;2023-03-08T08:51:08;99152.69;;;0.00;100.00
74372;BME280;62885;51.374;6.170;2023-03-08T08:53:35;99147.88;;;0.07;100.00
74372;BME280;62885;51.374;6.170;2023-03-08T08:58:37;99153.13;;;0.07;100.00
74372;BME280;62885;51.374;6.170;2023-03-08T09:01:02;99147.13;;;0.05;100.00
74372;BME280;62885;51.374;6.170;2023-03-08T09:03:27;99147.41;;;0.00;100.00
74372;BME280;62885;51.374;6.170;2023-03-08T09:05:53;99142.53;;;0.08;100.00
74372;BME280;62885;51.374;6.170;2023-03-08T09:08:18;99146.94;;;0.08;100.00
74372;BME280;62885;51.374;6.170;2023-03-08T09:10:43;99150.16;;;0.13;100.00
74372;BME280;62885;51.374;6.170;2023-03-08T09:13:10;99145.16;;;0.08;100.00
74372;BME280;62885;51.374;6.170;2023-03-08T09:15:35;99149.31;;;0.12;100.00
74372;BME280;62885;51.374;6.170;2023-03-08T09:18:02;99146.94;;;0.08;100.00
74372;BME280;62885;51.374;6.170;2023-03-08T09:20:27;99140.75;;;0.09;100.00
74372;BME280;62885;51.374;6.170;2023-03-08T09:22:52;99140.94;;;0.06;100.00
74372;BME280;62885;51.374;6.170;2023-03-08T09:25:18;99142.97;;;0.00;100.00
74372;BME280;62885;51.374;6.170;2023-03-08T09:27:44;99140.94;;;0.06;100.00
74372;BME280;62885;51.374;6.170;2023-03-08T09:30:12;99136.25;;;0.11;100.00
74372;BME280;62885;51.374;6.170;2023-03-08T09:32:38;99128.94;;;0.16;100.00
74372;BME280;62885;51.374;6.170;2023-03-08T09:35:04;99135.78;;;0.18;100.00
74372;BME280;62885;51.374;6.170;2023-03-08T09:37:30;99146.16;;;0.21;100.00
74372;BME280;62885;51.374;6.170;2023-03-08T09:39:55;99139.53;;;0.14;100.00
74372;BME280;62885;51.374;6.170;2023-03-08T09:42:26;99141.78;;;0.06;100.00
74372;BME280;62885;51.374;6.170;2023-03-08T09:50:20;99130.44;;;0.06;100.00
74372;BME280;62885;51.374;6.170;2023-03-08T09:52:56;99109.38;;;0.06;100.00
74372;BME280;62885;51.374;6.170;2023-03-08T09:55:29;99106.47;;;0.24;100.00
74372;BME280;62885;51.374;6.170;2023-03-08T09:58:01;99104.41;;;0.15;100.00
74372;BME280;62885;51.374;6.170;2023-03-08T10:00:30;99086.84;;;0.16;100.00
74372;BME280;62885;51.374;6.170;2023-03-08T10:05:57;99082.16;;;0.21;100.00
74372;BME280;62885;51.374;6.170;2023-03-08T10:08:31;99080.16;;;0.24;100.00
74372;BME280;62885;51.374;6.170;2023-03-08T10:11:01;99081.50;;;0.31;100.00
74372;BME280;62885;51.374;6.170;2023-03-08T10:21:25;99057.28;;;0.40;100.00
74372;BME280;62885;51.374;6.170;2023-03-08T10:24:04;99055.47;;;0.41;100.00
74372;BME280;62885;51.374;6.170;2023-03-08T10:26:36;99040.69;;;0.53;100.00
74372;BME280;62885;51.374;6.170;2023-03-08T10:29:02;99042.59;;;0.51;100.00
74372;BME280;62885;51.374;6.170;2023-03-08T10:31:30;99046.38;;;0.47;100.00
74372;BME280;62885;51.374;6.170;2023-03-08T10:36:59;99045.97;;;0.53;100.00
74372;BME280;62885;51.374;6.170;2023-03-08T10:39:25;99050.78;;;0.46;100.00
74372;BME280;62885;51.374;6.170;2023-03-08T10:41:54;99050.78;;;0.46;100.00
74372;BME280;62885;51.374;6.170;2023-03-08T10:46:57;99058.94;;;0.56;100.00
74372;BME280;62885;51.374;6.170;2023-03-08T10:49:24;99043.63;;;0.62;100.00
74372;BME280;62885;51.374;6.170;2023-03-08T10:51:58;99048.81;;;0.64;100.00
74372;BME280;62885;51.374;6.170;2023-03-08T10:54:24;99054.53;;;0.56;100.00
74372;BME280;62885;51.374;6.170;2023-03-08T10:56:57;99060.28;;;0.63;100.00
74372;BME280;62885;51.374;6.170;2023-03-08T10:59:28;99040.03;;;0.49;100.00
74372;BME280;62885;51.374;6.170;2023-03-08T11:02:17;99025.56;;;0.56;100.00
74372;BME280;62885;51.374;6.170;2023-03-08T11:04:57;99043.53;;;0.50;100.00
74372;BME280;62885;51.374;6.170;2023-03-08T11:07:26;99041.38;;;0.56;100.00
74372;BME280;62885;51.374;6.170;2023-03-08T11:10:14;99036.94;;;0.57;100.00
74372;BME280;62885;51.374;6.170;2023-03-08T11:12:40;99032.03;;;0.65;100.00
74372;BME280;62885;51.374;6.170;2023-03-08T11:15:15;99015.84;;;0.71;100.00
74372;BME280;62885;51.374;6.170;2023-03-08T11:17:54;99033.06;;;0.76;100.00
74372;BME280;62885;51.374;6.170;2023-03-08T11:20:40;99032.72;;;0.68;100.00
74372;BME280;62885;51.374;6.170;2023-03-08T11:23:20;99034.41;;;0.55;100.00
74372;BME280;62885;51.374;6.170;2023-03-08T11:31:37;99039.59;;;0.57;100.00
74372;BME280;62885;51.374;6.170;2023-03-08T11:36:47;99061.28;;;0.60;100.00
74372;BME280;62885;51.374;6.170;2023-03-08T11:39:17;99067.31;;;0.62;100.00
74372;BME280;62885;51.374;6.170;2023-03-08T11:41:57;99061.97;;;0.64;100.00
74372;BME280;62885;51.374;6.170;2023-03-08T11:44:43;99062.69;;;0.66;100.00
74372;BME280;62885;51.374;6.170;2023-03-08T11:47:38;99056.19;;;0.71;100.00
74372;BME280;62885;51.374;6.170;2023-03-08T11:50:21;99038.69;;;0.70;100.00
74372;BME280;62885;51.374;6.170;2023-03-08T11:53:06;99035.44;;;0.67;100.00
74372;BME280;62885;51.374;6.170;2023-03-08T11:55:56;99017.75;;;0.69;100.00
74372;BME280;62885;51.374;6.170;2023-03-08T11:58:39;99011.44;;;0.71;100.00
74372;BME280;62885;51.374;6.170;2023-03-08T12:01:16;99007.94;;;0.71;100.00
74372;BME280;62885;51.374;6.170;2023-03-08T12:03:46;99000.59;;;0.76;100.00
74372;BME280;62885;51.374;6.170;2023-03-08T12:06:37;99014.63;;;0.76;100.00
74372;BME280;62885;51.374;6.170;2023-03-08T12:09:30;98991.66;;;0.78;100.00
74372;BME280;62885;51.374;6.170;2023-03-08T12:12:04;99002.03;;;0.81;100.00
74372;BME280;62885;51.374;6.170;2023-03-08T12:14:50;99006.69;;;0.91;100.00
74372;BME280;62885;51.374;6.170;2023-03-08T12:17:24;99005.09;;;0.88;100.00
74372;BME280;62885;51.374;6.170;2023-03-08T12:19:51;98992.53;;;0.79;100.00
74372;BME280;62885;51.374;6.170;2023-03-08T12:32:40;98982.50;;;0.98;99.89
74372;BME280;62885;51.374;6.170;2023-03-08T12:35:36;98987.38;;;1.04;99.86
74372;BME280;62885;51.374;6.170;2023-03-08T12:40:50;98997.00;;;1.18;99.67
74372;BME280;62885;51.374;6.170;2023-03-08T12:51:01;98966.63;;;1.12;100.00
74372;BME280;62885;51.374;6.170;2023-03-08T12:58:49;98984.88;;;1.15;99.72
74372;BME280;62885;51.374;6.170;2023-03-08T13:03:52;98987.63;;;1.14;100.00
74372;BME280;62885;51.374;6.170;2023-03-08T13:08:54;98989.22;;;1.16;99.49
74372;BME280;62885;51.374;6.170;2023-03-08T13:11:23;98980.69;;;1.26;100.00
74372;BME280;62885;51.374;6.170;2023-03-08T13:13:57;98976.59;;;1.21;99.27
74372;BME280;62885;51.374;6.170;2023-03-08T13:16:37;98975.72;;;1.21;99.07
74372;BME280;62885;51.374;6.170;2023-03-08T13:19:17;98970.59;;;1.32;99.33
74372;BME280;62885;51.374;6.170;2023-03-08T13:21:57;98962.88;;;1.16;98.40
74372;BME280;62885;51.374;6.170;2023-03-08T13:24:41;98966.97;;;1.20;99.18
74372;BME280;62885;51.374;6.170;2023-03-08T13:30:23;98956.66;;;1.30;99.44
74372;BME280;62885;51.374;6.170;2023-03-08T13:32:49;98950.03;;;1.37;99.48
74372;BME280;62885;51.374;6.170;2023-03-08T13:35:17;98939.00;;;1.45;98.73
74372;BME280;62885;51.374;6.170;2023-03-08T13:37:51;98938.78;;;1.48;99.19
74372;BME280;62885;51.374;6.170;2023-03-08T13:40:19;98944.69;;;1.51;98.98
74372;BME280;62885;51.374;6.170;2023-03-08T13:43:00;98949.28;;;1.35;98.81
74372;BME280;62885;51.374;6.170;2023-03-08T13:45:33;98948.78;;;1.43;99.28
74372;BME280;62885;51.374;6.170;2023-03-08T13:48:02;98938.16;;;1.44;98.46
74372;BME280;62885;51.374;6.170;2023-03-08T13:50:33;98939.28;;;1.40;99.21
74372;BME280;62885;51.374;6.170;2023-03-08T13:53:00;98937.31;;;1.44;99.04
74372;BME280;62885;51.374;6.170;2023-03-08T13:55:31;98939.94;;;1.44;99.12
74372;BME280;62885;51.374;6.170;2023-03-08T13:57:57;98934.00;;;1.40;99.79
74372;BME280;62885;51.374;6.170;2023-03-08T14:00:25;98939.28;;;1.40;98.97
74372;BME280;62885;51.374;6.170;2023-03-08T14:02:50;98942.03;;;1.39;99.48
74372;BME280;62885;51.374;6.170;2023-03-08T14:05:18;98939.72;;;1.47;99.28
74372;BME280;62885;51.374;6.170;2023-03-08T14:07:55;98939.09;;;1.43;98.79
74372;BME280;62885;51.374;6.170;2023-03-08T14:10:21;98931.94;;;1.45;99.26
74372;BME280;62885;51.374;6.170;2023-03-08T14:12:51;98929.59;;;1.41;99.44
74372;BME280;62885;51.374;6.170;2023-03-08T14:15:17;98929.28;;;1.33;99.24
74372;BME280;62885;51.374;6.170;2023-03-08T14:17:43;98936.00;;;1.37;99.55
74372;BME280;62885;51.374;6.170;2023-03-08T14:20:18;98923.78;;;1.36;99.69
74372;BME280;62885;51.374;6.170;2023-03-08T14:22:48;98918.81;;;1.31;99.69